createdAt,value
2018-09-12T00:02:05.279Z,97395.39
2018-09-12T00:04:34.688Z,97387.96
2018-09-12T00:07:03.488Z,97384.90
2018-09-12T00:09:34.284Z,97383.77
2018-09-12T00:12:03.104Z,97376.28
2018-09-12T00:14:31.880Z,97371.03
2018-09-12T00:17:00.773Z,97375.06
2018-09-12T00:19:29.527Z,97372.16
2018-09-12T00:21:58.366Z,97374.02
2018-09-12T00:24:27.208Z,97369.31
2018-09-12T00:26:55.992Z,97364.63
2018-09-12T00:29:24.764Z,97367.52
2018-09-12T00:31:53.525Z,97356.09
2018-09-12T00:34:22.280Z,97353.48
2018-09-12T00:36:51.035Z,97353.98
2018-09-12T00:39:20.073Z,97352.20
2018-09-12T00:41:48.828Z,97348.55
2018-09-12T00:44:17.583Z,97350.77
2018-09-12T00:46:46.336Z,97347.66
2018-09-12T00:49:15.143Z,97350.27
2018-09-12T00:51:43.891Z,97346.92
2018-09-12T00:54:15.479Z,97340.77
2018-09-12T00:56:44.236Z,97345.67
2018-09-12T00:59:12.988Z,97347.17
2018-09-12T01:01:41.848Z,97343.02
2018-09-12T01:04:10.609Z,97340.19
2018-09-12T01:06:39.355Z,97334.53
2018-09-12T01:09:08.108Z,97332.72
2018-09-12T01:11:36.852Z,97331.98
2018-09-12T01:14:05.611Z,97327.39
2018-09-12T01:16:35.305Z,97323.74
2018-09-12T01:19:04.527Z,97319.11
2018-09-12T01:21:33.271Z,97324.61
2018-09-12T01:24:02.130Z,97319.00
2018-09-12T01:26:30.903Z,97325.49
2018-09-12T01:28:59.769Z,97321.83
2018-09-12T01:31:28.689Z,97324.45
2018-09-12T01:33:58.062Z,97324.20
2018-09-12T01:36:26.981Z,97325.00
2018-09-12T01:38:55.772Z,97311.29
2018-09-12T01:41:24.546Z,97313.60
2018-09-12T01:43:53.305Z,97308.17
2018-09-12T01:46:22.287Z,97300.38
2018-09-12T01:48:51.061Z,97299.31
2018-09-12T01:51:19.836Z,97298.33
2018-09-12T01:53:48.574Z,97300.38
2018-09-12T01:56:17.344Z,97294.20
2018-09-12T01:58:46.320Z,97296.80
2018-09-12T02:01:15.251Z,97293.73
2018-09-12T02:03:43.983Z,97292.97
2018-09-12T02:06:12.771Z,97292.45
2018-09-12T02:08:41.596Z,97289.89
2018-09-12T02:11:10.344Z,97284.18
2018-09-12T02:13:39.099Z,97283.38
2018-09-12T02:16:07.890Z,97282.81
2018-09-12T02:18:36.633Z,97286.49
2018-09-12T02:21:05.520Z,97283.91
2018-09-12T02:23:34.449Z,97278.73
2018-09-12T02:26:03.396Z,97277.77
2018-09-12T02:28:32.328Z,97274.13
2018-09-12T02:31:01.159Z,97272.09
2018-09-12T02:33:29.973Z,97270.54
2018-09-12T02:36:04.167Z,97271.83
2018-09-12T02:38:32.965Z,97269.24
2018-09-12T02:41:01.852Z,97270.30
2018-09-12T02:43:30.751Z,97266.23
2018-09-12T02:46:00.187Z,97268.31
2018-09-12T02:48:28.933Z,97275.30
2018-09-12T02:50:57.671Z,97267.28
2018-09-12T02:53:26.400Z,97260.80
2018-09-12T02:55:55.256Z,97261.85
2018-09-12T02:58:24.071Z,97260.56
2018-09-12T03:00:52.875Z,97256.50
2018-09-12T03:03:22.037Z,97258.34
2018-09-12T03:05:50.897Z,97254.70
2018-09-12T03:08:19.709Z,97257.31
2018-09-12T03:10:48.472Z,97254.22
2018-09-12T03:13:17.309Z,97257.05
2018-09-12T03:15:46.092Z,97261.98
2018-09-12T03:18:14.845Z,97256.05
2018-09-12T03:20:43.884Z,97257.69
2018-09-12T03:23:12.580Z,97258.48
2018-09-12T03:25:41.382Z,97254.56
2018-09-12T03:28:10.244Z,97254.31
2018-09-12T03:30:38.994Z,97252.77
2018-09-12T03:33:07.749Z,97246.30
2018-09-12T03:35:36.481Z,97250.22
2018-09-12T03:38:05.287Z,97250.22
2018-09-12T03:40:34.056Z,97244.00
2018-09-12T03:43:02.829Z,97243.00
2018-09-12T03:45:31.576Z,97243.29
2018-09-12T03:48:00.459Z,97245.88
2018-09-12T03:50:29.358Z,97245.62
2018-09-12T03:52:58.116Z,97249.51
2018-09-12T03:55:26.888Z,97249.79
2018-09-12T03:57:55.650Z,97251.59
2018-09-12T04:00:24.432Z,97250.83
2018-09-12T04:02:53.306Z,97252.16
2018-09-12T04:05:22.096Z,97248.28
2018-09-12T04:07:50.848Z,97249.85
2018-09-12T04:10:19.602Z,97242.87
2018-09-12T04:12:48.369Z,97242.91
2018-09-12T04:15:17.304Z,97243.66
2018-09-12T04:17:46.068Z,97235.14
2018-09-12T04:20:14.832Z,97235.68
2018-09-12T04:22:43.649Z,97237.76
2018-09-12T04:25:12.395Z,97240.06
2018-09-12T04:27:41.157Z,97233.87
2018-09-12T04:30:10.000Z,97233.87
2018-09-12T04:32:38.825Z,97232.08
2018-09-12T04:35:07.607Z,97231.56
2018-09-12T04:37:36.384Z,97231.57
2018-09-12T04:40:05.216Z,97224.06
2018-09-12T04:42:33.996Z,97230.80
2018-09-12T04:45:04.079Z,97227.95
2018-09-12T04:47:33.579Z,97234.94
2018-09-12T04:50:02.846Z,97233.13
2018-09-12T04:52:31.637Z,97238.30
2018-09-12T04:55:00.860Z,97237.27
2018-09-12T04:57:29.793Z,97238.56
2018-09-12T04:59:59.407Z,97241.66
2018-09-12T05:02:28.459Z,97246.83
2018-09-12T05:05:02.374Z,97240.88
2018-09-12T05:07:31.523Z,97243.47
2018-09-12T05:10:00.702Z,97243.98
2018-09-12T05:12:30.413Z,97238.05
2018-09-12T05:14:59.614Z,97237.02
2018-09-12T05:17:28.384Z,97231.59
2018-09-12T05:19:58.508Z,97237.77
2018-09-12T05:22:29.163Z,97229.77
2018-09-12T05:24:57.950Z,97237.27
2018-09-12T05:27:26.743Z,97237.27
2018-09-12T05:29:55.487Z,97235.95
2018-09-12T05:32:26.437Z,97240.59
2018-09-12T05:34:55.404Z,97243.43
2018-09-12T05:37:24.273Z,97243.69
2018-09-12T05:39:53.230Z,97244.20
2018-09-12T05:42:22.029Z,97240.30
2018-09-12T05:44:50.782Z,97244.67
2018-09-12T05:47:19.577Z,97241.05
2018-09-12T05:49:48.335Z,97247.74
2018-09-12T05:52:17.172Z,97248.71
2018-09-12T05:54:45.936Z,97246.12
2018-09-12T05:57:14.830Z,97249.72
2018-09-12T05:59:43.666Z,97252.81
2018-09-12T06:02:12.585Z,97253.81
2018-09-12T06:04:41.345Z,97250.42
2018-09-12T06:07:10.236Z,97247.28
2018-09-12T06:09:38.884Z,97247.20
2018-09-12T06:12:07.725Z,97255.98
2018-09-12T06:14:36.490Z,97250.98
2018-09-12T06:17:05.309Z,97245.19
2018-09-12T06:19:34.087Z,97250.54
2018-09-12T06:22:02.856Z,97247.31
2018-09-12T06:24:31.738Z,97244.58
2018-09-12T06:27:00.592Z,97239.47
2018-09-12T06:29:29.349Z,97245.02
2018-09-12T06:31:58.137Z,97243.65
2018-09-12T06:34:26.892Z,97242.96
2018-09-12T06:36:55.645Z,97241.23
2018-09-12T06:39:24.449Z,97239.00
2018-09-12T06:41:53.297Z,97235.59
2018-09-12T06:44:22.106Z,97235.75
2018-09-12T06:46:50.868Z,97231.64
2018-09-12T06:49:19.789Z,97233.13
2018-09-12T06:51:48.999Z,97221.90
2018-09-12T06:54:17.872Z,97226.76
2018-09-12T06:56:46.648Z,97230.39
2018-09-12T06:59:15.565Z,97236.73
2018-09-12T07:01:44.561Z,97231.61
2018-09-12T07:04:13.583Z,97229.55
2018-09-12T07:06:42.358Z,97226.08
2018-09-12T07:09:11.740Z,97232.86
2018-09-12T07:11:40.499Z,97238.55
2018-09-12T07:14:09.321Z,97233.02
2018-09-12T07:16:38.050Z,97230.44
2018-09-12T07:19:06.839Z,97231.30
2018-09-12T07:21:35.588Z,97227.31
2018-09-12T07:24:04.390Z,97226.58
2018-09-12T07:26:33.319Z,97229.59
2018-09-12T07:29:02.108Z,97227.50
2018-09-12T07:31:30.880Z,97228.11
2018-09-12T07:33:59.697Z,97233.20
2018-09-12T07:36:28.468Z,97230.76
2018-09-12T07:38:57.393Z,97239.67
2018-09-12T07:41:26.247Z,97236.41
2018-09-12T07:43:55.091Z,97241.66
2018-09-12T07:46:23.909Z,97241.20
2018-09-12T07:48:52.828Z,97246.48
2018-09-12T07:51:21.572Z,97248.38
2018-09-12T07:53:50.336Z,97249.79
2018-09-12T07:56:19.191Z,97253.12
2018-09-12T07:58:47.881Z,97256.34
2018-09-12T08:01:16.681Z,97251.34
2018-09-12T08:03:45.578Z,97253.84
2018-09-12T08:06:14.380Z,97263.70
2018-09-12T15:57:53.241Z,96916.02
2018-09-12T16:00:22.317Z,96912.98
2018-09-12T16:02:51.489Z,96910.53
2018-09-12T16:05:20.692Z,96903.29
2018-09-12T16:07:49.595Z,96911.07
2018-09-12T16:10:18.514Z,96896.80
2018-09-12T16:12:47.531Z,96900.61
2018-09-12T16:15:16.565Z,96893.53
2018-09-12T16:17:45.544Z,96888.31
2018-09-12T16:20:14.436Z,96886.23
2018-09-12T16:22:43.316Z,96883.75
2018-09-12T16:25:12.272Z,96877.39
2018-09-12T16:27:41.328Z,96878.72
2018-09-12T16:30:10.255Z,96884.95
2018-09-12T16:32:39.262Z,96882.47
2018-09-12T16:35:08.340Z,96878.63
2018-09-12T16:37:37.256Z,96882.52
2018-09-12T16:40:06.331Z,96876.59
2018-09-12T16:42:35.708Z,96882.47
2018-09-12T16:45:04.773Z,96876.05
2018-09-12T16:47:34.407Z,96878.64
2018-09-12T16:50:03.651Z,96884.74
2018-09-12T16:52:32.804Z,96877.58
2018-09-12T16:55:05.295Z,96886.70
2018-09-12T16:57:34.185Z,96885.27
2018-09-12T17:00:03.103Z,96886.32
2018-09-12T17:02:32.059Z,96881.27
2018-09-12T17:05:01.260Z,96880.39
2018-09-12T17:07:30.386Z,96883.23
2018-09-12T17:09:59.324Z,96878.75
2018-09-12T17:12:28.315Z,96882.75
2018-09-12T17:14:57.283Z,96883.85
2018-09-12T17:17:26.246Z,96885.18
2018-09-12T17:19:55.212Z,96880.64
2018-09-12T17:22:24.122Z,96883.47
2018-09-12T17:24:53.048Z,96882.77
2018-09-12T17:27:22.137Z,96890.48
2018-09-12T17:29:51.109Z,96883.18
2018-09-12T17:32:20.059Z,96879.36
2018-09-12T17:34:48.977Z,96885.95
2018-09-12T17:37:17.970Z,96885.69
2018-09-12T17:39:46.960Z,96886.42
2018-09-12T17:42:15.935Z,96889.76
2018-09-12T17:44:44.804Z,96884.58
2018-09-12T17:47:14.380Z,96885.70
2018-09-12T17:49:43.347Z,96882.52
2018-09-12T17:52:12.259Z,96890.01
2018-09-12T17:54:41.256Z,96889.48
2018-09-12T17:57:10.359Z,96891.66
2018-09-12T17:59:39.333Z,96892.03
2018-09-12T18:02:08.256Z,96889.25
2018-09-12T18:04:37.165Z,96883.97
2018-09-12T18:07:06.084Z,96885.70
2018-09-12T18:09:35.097Z,96886.17
2018-09-12T18:12:04.027Z,96893.89
2018-09-12T18:14:33.633Z,96891.94
2018-09-12T18:17:02.528Z,96897.72
2018-09-12T18:19:31.455Z,96895.59
2018-09-12T18:22:01.062Z,96901.75
2018-09-12T18:24:32.072Z,96904.56
2018-09-12T18:27:02.940Z,96905.27
2018-09-12T18:29:32.625Z,96902.69
2018-09-12T18:32:02.421Z,96907.84
2018-09-12T18:34:31.737Z,96909.55
2018-09-12T18:37:00.793Z,96912.33
2018-09-12T18:39:29.691Z,96921.11
2018-09-12T18:41:58.976Z,96920.34
2018-09-12T18:44:27.860Z,96916.55
2018-09-12T18:46:56.737Z,96925.52
2018-09-12T18:49:25.724Z,96921.94
2018-09-12T18:51:54.613Z,96925.98
2018-09-12T18:54:23.592Z,96915.72
2018-09-12T18:56:52.806Z,96912.13
2018-09-12T18:59:21.736Z,96920.01
2018-09-12T19:01:50.628Z,96920.59
2018-09-12T19:04:19.536Z,96923.16
2018-09-12T19:06:48.555Z,96923.17
2018-09-12T19:09:17.488Z,96927.54
2018-09-12T19:11:46.403Z,96934.88
2018-09-12T19:14:15.392Z,96927.55
2018-09-12T19:16:47.694Z,96926.67
2018-09-12T19:19:16.658Z,96930.80
2018-09-12T19:21:45.608Z,96925.76
2018-09-12T19:24:14.772Z,96926.52
2018-09-12T19:26:43.712Z,96919.19
2018-09-12T19:29:12.652Z,96913.45
2018-09-12T19:31:41.695Z,96918.13
2018-09-12T19:34:10.775Z,96916.35
2018-09-12T19:36:40.257Z,96920.47
2018-09-12T19:39:09.947Z,96917.41
2018-09-12T19:41:39.604Z,96917.94
2018-09-12T19:44:08.718Z,96916.59
2018-09-12T19:46:37.749Z,96907.89
2018-09-12T19:49:06.769Z,96906.05
2018-09-12T19:51:36.033Z,96908.07
2018-09-12T19:54:05.160Z,96905.75
2018-09-12T19:56:34.129Z,96911.59
2018-09-12T19:59:03.052Z,96910.50
2018-09-12T20:01:32.058Z,96911.23
2018-09-12T20:04:01.031Z,96915.47
2018-09-12T20:06:29.954Z,96914.02
2018-09-12T20:08:58.890Z,96915.29
2018-09-12T20:11:28.153Z,96917.19
2018-09-12T20:13:57.382Z,96918.92
2018-09-12T20:16:26.301Z,96916.48
2018-09-12T20:18:55.257Z,96917.19
2018-09-12T20:21:24.375Z,96915.75
2018-09-12T20:23:53.664Z,96913.69
2018-09-12T20:26:22.807Z,96903.09
2018-09-12T20:28:53.499Z,96905.27
2018-09-12T20:31:22.945Z,96903.68
2018-09-12T20:33:51.856Z,96913.92
2018-09-12T20:36:20.783Z,96910.58
2018-09-12T20:38:49.727Z,96912.53
2018-09-12T20:41:18.891Z,96910.30
2018-09-12T20:43:49.221Z,96912.34
2018-09-12T20:46:18.352Z,96916.00
2018-09-12T20:48:47.384Z,96910.72
2018-09-12T20:51:16.572Z,96910.72
2018-09-12T20:53:45.452Z,96899.62
2018-09-12T20:56:14.577Z,96897.67
2018-09-12T20:58:43.501Z,96893.66
2018-09-12T21:01:12.534Z,96895.17
2018-09-12T21:03:41.476Z,96892.78
2018-09-12T21:06:10.925Z,96900.06
2018-09-12T21:08:40.019Z,96898.76
2018-09-12T21:11:08.987Z,96900.20
2018-09-12T21:13:37.900Z,96901.70
2018-09-12T21:16:06.831Z,96908.13
2018-09-12T21:18:35.749Z,96913.48
2018-09-12T21:21:04.830Z,96939.20
2018-09-12T21:23:33.833Z,96984.04
2018-09-12T21:26:02.736Z,96974.33
2018-09-12T21:28:31.769Z,96991.28
2018-09-12T21:31:00.677Z,96990.01
2018-09-12T21:33:29.685Z,96988.88
2018-09-12T21:35:58.625Z,96993.02
2018-09-12T21:38:27.609Z,96998.67
2018-09-12T21:40:56.579Z,96998.36
2018-09-12T21:43:25.620Z,96991.00
2018-09-12T21:45:54.556Z,96998.84
2018-09-12T21:48:23.483Z,97001.59
2018-09-12T21:50:52.400Z,97002.50
2018-09-12T21:53:21.294Z,97001.19
2018-09-12T21:55:50.182Z,97008.97
2018-09-12T21:58:19.315Z,96997.73
2018-09-12T22:00:48.420Z,97000.37
2018-09-12T22:03:17.381Z,96992.48
2018-09-12T22:05:46.321Z,96999.08
2018-09-12T22:08:15.283Z,96995.75
2018-09-12T22:10:44.165Z,96989.02
2018-09-12T22:13:13.467Z,96976.15
2018-09-12T22:15:42.645Z,96976.66
2018-09-12T22:18:11.499Z,96976.84
2018-09-12T22:20:40.374Z,96977.67
2018-09-12T22:23:09.328Z,96965.88
2018-09-12T22:25:38.214Z,96952.72
2018-09-12T22:28:07.299Z,96927.97
2018-09-12T22:30:36.198Z,96909.94
2018-09-12T22:33:05.244Z,96916.92
2018-09-12T22:35:34.131Z,96934.77
2018-09-12T22:38:03.010Z,96941.56
2018-09-12T22:40:31.920Z,96939.89
2018-09-12T22:43:00.828Z,96936.84
2018-09-12T22:45:29.679Z,96936.33
2018-09-12T22:47:58.607Z,96932.55
2018-09-12T22:50:27.548Z,96917.95
2018-09-12T22:52:56.492Z,96910.86
2018-09-12T22:55:25.443Z,96910.70
2018-09-12T22:57:54.328Z,96910.30
2018-09-12T23:00:23.413Z,96905.52
2018-09-12T23:02:52.340Z,96907.36
2018-09-12T23:05:21.216Z,96902.94
2018-09-12T23:07:50.301Z,96901.34
2018-09-12T23:10:19.190Z,96899.44
2018-09-12T23:12:48.164Z,96900.78
2018-09-12T23:15:17.036Z,96905.19
2018-09-12T23:17:45.907Z,96899.52
2018-09-12T23:20:14.802Z,96902.17
2018-09-12T23:22:43.650Z,96893.77
2018-09-12T23:25:12.607Z,96888.88
2018-09-12T23:27:41.510Z,96887.91
2018-09-12T23:30:10.552Z,96876.80
2018-09-12T23:32:39.553Z,96865.45
2018-09-12T23:35:08.431Z,96870.48
2018-09-12T23:37:37.304Z,96861.30
2018-09-12T23:40:06.324Z,96855.97
2018-09-12T23:42:35.220Z,96858.13
2018-09-12T23:45:04.167Z,96844.55
2018-09-12T23:47:33.044Z,96846.22
2018-09-12T23:50:01.964Z,96844.77
2018-09-12T23:52:30.911Z,96837.48
2018-09-12T23:54:59.763Z,96840.39
2018-09-12T23:57:28.627Z,96841.25
2018-09-12T23:59:57.615Z,96839.58
